sensor_id;sensor_type;location;lat;lon;timestamp;temperature;humidity
28460;DHT22;32528;45.712;9.192;2022-10-31T00:03:26;13.80;99.90
28460;DHT22;32528;45.712;9.192;2022-10-31T00:05:26;13.80;99.90
28460;DHT22;32528;45.712;9.192;2022-10-31T00:07:27;13.80;99.90
28460;DHT22;32528;45.712;9.192;2022-10-31T00:09:28;13.80;99.90
28460;DHT22;32528;45.712;9.192;2022-10-31T00:11:28;13.80;99.90
28460;DHT22;32528;45.712;9.192;2022-10-31T00:13:29;13.70;99.90
28460;DHT22;32528;45.712;9.192;2022-10-31T00:15:30;13.70;99.90
28460;DHT22;32528;45.712;9.192;2022-10-31T00:17:34;13.70;99.90
28460;DHT22;32528;45.712;9.192;2022-10-31T00:19:35;13.70;99.90
28460;DHT22;32528;45.712;9.192;2022-10-31T00:21:35;13.70;99.90
28460;DHT22;32528;45.712;9.192;2022-10-31T00:23:36;13.70;99.90
28460;DHT22;32528;45.712;9.192;2022-10-31T00:25:38;13.70;99.90
28460;DHT22;32528;45.712;9.192;2022-10-31T00:27:39;13.70;99.90
28460;DHT22;32528;45.712;9.192;2022-10-31T00:29:39;13.70;99.90
28460;DHT22;32528;45.712;9.192;2022-10-31T00:31:40;13.60;99.90
28460;DHT22;32528;45.712;9.192;2022-10-31T00:33:41;13.60;99.90
28460;DHT22;32528;45.712;9.192;2022-10-31T00:35:41;13.50;99.90
28460;DHT22;32528;45.712;9.192;2022-10-31T00:37:42;13.50;99.90
28460;DHT22;32528;45.712;9.192;2022-10-31T00:39:43;13.50;99.90
28460;DHT22;32528;45.712;9.192;2022-10-31T00:41:45;13.50;99.90
28460;DHT22;32528;45.712;9.192;2022-10-31T00:43:46;13.40;99.90
28460;DHT22;32528;45.712;9.192;2022-10-31T00:45:47;13.40;99.90
28460;DHT22;32528;45.712;9.192;2022-10-31T00:47:48;13.40;99.90
28460;DHT22;32528;45.712;9.192;2022-10-31T00:49:48;13.40;99.90
28460;DHT22;32528;45.712;9.192;2022-10-31T00:51:49;13.40;99.90
28460;DHT22;32528;45.712;9.192;2022-10-31T00:53:50;13.30;99.90
28460;DHT22;32528;45.712;9.192;2022-10-31T00:55:50;13.40;99.90
28460;DHT22;32528;45.712;9.192;2022-10-31T00:57:51;13.30;99.90
28460;DHT22;32528;45.712;9.192;2022-10-31T00:59:52;13.20;99.90
28460;DHT22;32528;45.712;9.192;2022-10-31T01:01:52;13.20;99.90
28460;DHT22;32528;45.712;9.192;2022-10-31T01:03:53;13.20;99.90
28460;DHT22;32528;45.712;9.192;2022-10-31T01:05:57;13.20;99.90
28460;DHT22;32528;45.712;9.192;2022-10-31T01:07:58;13.10;99.90
28460;DHT22;32528;45.712;9.192;2022-10-31T01:10:01;13.10;99.90
28460;DHT22;32528;45.712;9.192;2022-10-31T01:12:02;13.10;99.90
28460;DHT22;32528;45.712;9.192;2022-10-31T01:14:02;13.10;99.90
28460;DHT22;32528;45.712;9.192;2022-10-31T01:16:06;13.10;99.90
28460;DHT22;32528;45.712;9.192;2022-10-31T01:18:07;13.10;99.90
28460;DHT22;32528;45.712;9.192;2022-10-31T01:20:08;13.10;99.90
28460;DHT22;32528;45.712;9.192;2022-10-31T01:22:09;13.10;99.90
28460;DHT22;32528;45.712;9.192;2022-10-31T01:24:09;13.20;99.90
28460;DHT22;32528;45.712;9.192;2022-10-31T01:26:13;13.20;99.90
28460;DHT22;32528;45.712;9.192;2022-10-31T01:28:14;13.10;99.90
28460;DHT22;32528;45.712;9.192;2022-10-31T01:30:15;13.10;99.90
28460;DHT22;32528;45.712;9.192;2022-10-31T01:32:16;13.10;99.90
28460;DHT22;32528;45.712;9.192;2022-10-31T01:34:16;13.10;99.90
28460;DHT22;32528;45.712;9.192;2022-10-31T01:36:19;13.10;99.90
28460;DHT22;32528;45.712;9.192;2022-10-31T01:38:23;13.00;99.90
28460;DHT22;32528;45.712;9.192;2022-10-31T01:40:23;13.00;99.90
28460;DHT22;32528;45.712;9.192;2022-10-31T01:42:24;13.00;99.90
28460;DHT22;32528;45.712;9.192;2022-10-31T01:46:34;12.90;99.90
28460;DHT22;32528;45.712;9.192;2022-10-31T01:48:37;12.90;99.90
28460;DHT22;32528;45.712;9.192;2022-10-31T01:50:38;12.90;99.90
28460;DHT22;32528;45.712;9.192;2022-10-31T01:52:41;12.90;99.90
28460;DHT22;32528;45.712;9.192;2022-10-31T01:56:51;12.90;99.90
28460;DHT22;32528;45.712;9.192;2022-10-31T01:58:53;12.90;99.90
28460;DHT22;32528;45.712;9.192;2022-10-31T02:00:56;12.90;99.90
28460;DHT22;32528;45.712;9.192;2022-10-31T02:02:57;12.90;99.90
28460;DHT22;32528;45.712;9.192;2022-10-31T02:05:00;12.80;99.90
28460;DHT22;32528;45.712;9.192;2022-10-31T02:07:03;12.80;99.90
28460;DHT22;32528;45.712;9.192;2022-10-31T02:09:05;12.80;99.90
28460;DHT22;32528;45.712;9.192;2022-10-31T02:11:06;12.80;99.90
28460;DHT22;32528;45.712;9.192;2022-10-31T02:13:08;12.70;99.90
28460;DHT22;32528;45.712;9.192;2022-10-31T02:15:16;12.70;99.90
28460;DHT22;32528;45.712;9.192;2022-10-31T02:17:17;12.70;99.90
28460;DHT22;32528;45.712;9.192;2022-10-31T02:19:20;12.70;99.90
28460;DHT22;32528;45.712;9.192;2022-10-31T02:21:39;12.70;99.90
28460;DHT22;32528;45.712;9.192;2022-10-31T02:30:10;12.60;99.90
28460;DHT22;32528;45.712;9.192;2022-10-31T02:32:28;12.50;99.90
28460;DHT22;32528;45.712;9.192;2022-10-31T02:34:43;12.50;99.90
28460;DHT22;32528;45.712;9.192;2022-10-31T02:36:54;12.60;99.90
28460;DHT22;32528;45.712;9.192;2022-10-31T02:43:28;12.50;99.90
28460;DHT22;32528;45.712;9.192;2022-10-31T02:45:48;12.50;99.90
28460;DHT22;32528;45.712;9.192;2022-10-31T02:47:50;12.50;99.90
28460;DHT22;32528;45.712;9.192;2022-10-31T02:51:57;12.50;99.90
28460;DHT22;32528;45.712;9.192;2022-10-31T02:53:58;12.60;99.90
28460;DHT22;32528;45.712;9.192;2022-10-31T02:56:00;12.50;99.90
28460;DHT22;32528;45.712;9.192;2022-10-31T03:00:06;12.60;99.90
28460;DHT22;32528;45.712;9.192;2022-10-31T03:04:32;12.60;99.90
28460;DHT22;32528;45.712;9.192;2022-10-31T03:10:57;12.60;99.90
28460;DHT22;32528;45.712;9.192;2022-10-31T03:13:05;12.60;99.90
28460;DHT22;32528;45.712;9.192;2022-10-31T03:15:19;12.60;99.90
28460;DHT22;32528;45.712;9.192;2022-10-31T03:17:24;12.70;99.90
28460;DHT22;32528;45.712;9.192;2022-10-31T03:19:27;12.60;99.90
28460;DHT22;32528;45.712;9.192;2022-10-31T03:21:36;12.60;99.90
28460;DHT22;32528;45.712;9.192;2022-10-31T03:23:38;12.70;99.90
28460;DHT22;32528;45.712;9.192;2022-10-31T03:25:39;12.70;99.90
28460;DHT22;32528;45.712;9.192;2022-10-31T03:27:42;12.70;99.90
28460;DHT22;32528;45.712;9.192;2022-10-31T03:29:44;12.60;99.90
28460;DHT22;32528;45.712;9.192;2022-10-31T03:31:49;12.70;99.90
28460;DHT22;32528;45.712;9.192;2022-10-31T03:33:51;12.60;99.90
28460;DHT22;32528;45.712;9.192;2022-10-31T03:35:53;12.60;99.90
28460;DHT22;32528;45.712;9.192;2022-10-31T03:37:55;12.60;99.90
28460;DHT22;32528;45.712;9.192;2022-10-31T03:39:57;12.60;99.90
28460;DHT22;32528;45.712;9.192;2022-10-31T03:42:00;12.60;99.90
28460;DHT22;32528;45.712;9.192;2022-10-31T03:44:04;12.60;99.90
28460;DHT22;32528;45.712;9.192;2022-10-31T03:46:07;12.60;99.90
28460;DHT22;32528;45.712;9.192;2022-10-31T03:48:08;12.60;99.90
28460;DHT22;32528;45.712;9.192;2022-10-31T03:50:09;12.60;99.90
28460;DHT22;32528;45.712;9.192;2022-10-31T03:56:29;12.50;99.90
28460;DHT22;32528;45.712;9.192;2022-10-31T03:58:43;12.50;99.90
28460;DHT22;32528;45.712;9.192;2022-10-31T04:00:46;12.60;99.90
28460;DHT22;32528;45.712;9.192;2022-10-31T04:02:51;12.60;99.90
28460;DHT22;32528;45.712;9.192;2022-10-31T04:04:54;12.60;99.90
28460;DHT22;32528;45.712;9.192;2022-10-31T04:06:56;12.50;99.90
28460;DHT22;32528;45.712;9.192;2022-10-31T04:08:59;12.60;99.90
28460;DHT22;32528;45.712;9.192;2022-10-31T04:11:00;12.50;99.90
28460;DHT22;32528;45.712;9.192;2022-10-31T04:13:06;12.50;99.90
28460;DHT22;32528;45.712;9.192;2022-10-31T04:15:14;12.50;99.90
28460;DHT22;32528;45.712;9.192;2022-10-31T04:17:15;12.50;99.90
28460;DHT22;32528;45.712;9.192;2022-10-31T04:19:17;12.50;99.90
28460;DHT22;32528;45.712;9.192;2022-10-31T04:21:18;12.50;99.90
28460;DHT22;32528;45.712;9.192;2022-10-31T04:23:19;12.50;99.90
28460;DHT22;32528;45.712;9.192;2022-10-31T04:25:20;12.50;99.90
28460;DHT22;32528;45.712;9.192;2022-10-31T04:27:21;12.50;99.90
28460;DHT22;32528;45.712;9.192;2022-10-31T04:29:22;12.60;99.90
28460;DHT22;32528;45.712;9.192;2022-10-31T04:31:22;12.50;99.90
28460;DHT22;32528;45.712;9.192;2022-10-31T04:33:24;12.50;99.90
28460;DHT22;32528;45.712;9.192;2022-10-31T04:35:24;12.60;99.90
28460;DHT22;32528;45.712;9.192;2022-10-31T04:37:25;12.60;99.90
28460;DHT22;32528;45.712;9.192;2022-10-31T04:39:26;12.50;99.90
28460;DHT22;32528;45.712;9.192;2022-10-31T04:41:53;12.50;99.90
28460;DHT22;32528;45.712;9.192;2022-10-31T04:43:54;12.50;99.90
28460;DHT22;32528;45.712;9.192;2022-10-31T04:45:55;12.50;99.90
28460;DHT22;32528;45.712;9.192;2022-10-31T04:47:56;12.50;99.90
28460;DHT22;32528;45.712;9.192;2022-10-31T04:49:57;12.50;99.90
28460;DHT22;32528;45.712;9.192;2022-10-31T04:51:58;12.50;99.90
28460;DHT22;32528;45.712;9.192;2022-10-31T04:53:59;12.50;99.90
28460;DHT22;32528;45.712;9.192;2022-10-31T04:56:02;12.50;99.90
28460;DHT22;32528;45.712;9.192;2022-10-31T04:58:11;12.50;99.90
28460;DHT22;32528;45.712;9.192;2022-10-31T05:00:13;12.40;99.90
28460;DHT22;32528;45.712;9.192;2022-10-31T05:02:14;12.40;99.90
28460;DHT22;32528;45.712;9.192;2022-10-31T05:04:28;12.40;99.90
28460;DHT22;32528;45.712;9.192;2022-10-31T05:06:28;12.40;99.90
28460;DHT22;32528;45.712;9.192;2022-10-31T05:08:29;12.40;99.90
28460;DHT22;32528;45.712;9.192;2022-10-31T05:10:31;12.40;99.90
28460;DHT22;32528;45.712;9.192;2022-10-31T05:12:33;12.40;99.90
28460;DHT22;32528;45.712;9.192;2022-10-31T05:14:57;12.50;99.90
28460;DHT22;32528;45.712;9.192;2022-10-31T05:17:16;12.50;99.90
28460;DHT22;32528;45.712;9.192;2022-10-31T05:19:42;12.50;99.90
28460;DHT22;32528;45.712;9.192;2022-10-31T05:22:15;12.50;99.90
28460;DHT22;32528;45.712;9.192;2022-10-31T05:24:15;12.50;99.90
28460;DHT22;32528;45.712;9.192;2022-10-31T05:26:21;12.50;99.90
28460;DHT22;32528;45.712;9.192;2022-10-31T05:28:22;12.50;99.90
28460;DHT22;32528;45.712;9.192;2022-10-31T05:30:24;12.60;99.90
28460;DHT22;32528;45.712;9.192;2022-10-31T05:32:26;12.60;99.90
28460;DHT22;32528;45.712;9.192;2022-10-31T05:34:45;12.60;99.90
28460;DHT22;32528;45.712;9.192;2022-10-31T05:37:19;12.50;99.90
28460;DHT22;32528;45.712;9.192;2022-10-31T05:39:21;12.50;99.90
28460;DHT22;32528;45.712;9.192;2022-10-31T05:41:24;12.50;99.90
28460;DHT22;32528;45.712;9.192;2022-10-31T05:43:28;12.50;99.90
28460;DHT22;32528;45.712;9.192;2022-10-31T05:45:29;12.40;99.90
28460;DHT22;32528;45.712;9.192;2022-10-31T05:47:33;12.40;99.90
28460;DHT22;32528;45.712;9.192;2022-10-31T05:49:52;12.40;99.90
28460;DHT22;32528;45.712;9.192;2022-10-31T05:52:19;12.40;99.90
28460;DHT22;32528;45.712;9.192;2022-10-31T05:54:28;12.40;99.90
28460;DHT22;32528;45.712;9.192;2022-10-31T05:56:29;12.40;99.90
28460;DHT22;32528;45.712;9.192;2022-10-31T05:58:30;12.40;99.90
28460;DHT22;32528;45.712;9.192;2022-10-31T06:00:40;12.40;99.90
28460;DHT22;32528;45.712;9.192;2022-10-31T06:02:43;12.40;99.90
28460;DHT22;32528;45.712;9.192;2022-10-31T06:04:57;12.40;99.90
28460;DHT22;32528;45.712;9.192;2022-10-31T06:06:59;12.40;99.90
28460;DHT22;32528;45.712;9.192;2022-10-31T06:09:00;12.40;99.90
28460;DHT22;32528;45.712;9.192;2022-10-31T06:11:03;12.50;99.90
28460;DHT22;32528;45.712;9.192;2022-10-31T06:13:39;12.40;99.90
28460;DHT22;32528;45.712;9.192;2022-10-31T06:15:49;12.50;99.90
28460;DHT22;32528;45.712;9.192;2022-10-31T06:17:57;12.50;99.90
28460;DHT22;32528;45.712;9.192;2022-10-31T06:20:00;12.50;99.90
28460;DHT22;32528;45.712;9.192;2022-10-31T06:22:01;12.60;99.90
28460;DHT22;32528;45.712;9.192;2022-10-31T06:24:03;12.60;99.90
28460;DHT22;32528;45.712;9.192;2022-10-31T06:26:24;12.60;99.90
28460;DHT22;32528;45.712;9.192;2022-10-31T06:28:24;12.60;99.90
28460;DHT22;32528;45.712;9.192;2022-10-31T06:30:29;12.60;99.90
28460;DHT22;32528;45.712;9.192;2022-10-31T06:32:30;12.60;99.90
28460;DHT22;32528;45.712;9.192;2022-10-31T06:34:30;12.60;99.90
28460;DHT22;32528;45.712;9.192;2022-10-31T06:36:31;12.70;99.90
28460;DHT22;32528;45.712;9.192;2022-10-31T06:38:32;12.80;99.90
28460;DHT22;32528;45.712;9.192;2022-10-31T06:40:33;12.90;99.90
28460;DHT22;32528;45.712;9.192;2022-10-31T06:43:00;12.90;99.90
28460;DHT22;32528;45.712;9.192;2022-10-31T06:45:01;13.00;99.90
28460;DHT22;32528;45.712;9.192;2022-10-31T06:47:40;13.10;99.90
28460;DHT22;32528;45.712;9.192;2022-10-31T06:49:44;13.10;99.90
28460;DHT22;32528;45.712;9.192;2022-10-31T06:51:49;13.20;99.90
28460;DHT22;32528;45.712;9.192;2022-10-31T06:53:50;13.30;99.90
28460;DHT22;32528;45.712;9.192;2022-10-31T06:55:52;13.40;99.90
28460;DHT22;32528;45.712;9.192;2022-10-31T06:57:56;13.40;99.90
28460;DHT22;32528;45.712;9.192;2022-10-31T06:59:57;13.50;99.90
28460;DHT22;32528;45.712;9.192;2022-10-31T07:02:17;13.60;99.90
28460;DHT22;32528;45.712;9.192;2022-10-31T07:04:18;13.70;99.90
28460;DHT22;32528;45.712;9.192;2022-10-31T07:06:18;13.80;99.90
28460;DHT22;32528;45.712;9.192;2022-10-31T07:08:20;13.90;99.90
28460;DHT22;32528;45.712;9.192;2022-10-31T07:10:22;14.00;99.90
28460;DHT22;32528;45.712;9.192;2022-10-31T07:12:29;14.10;99.90
28460;DHT22;32528;45.712;9.192;2022-10-31T07:14:32;14.20;99.90
28460;DHT22;32528;45.712;9.192;2022-10-31T07:16:33;14.30;99.90
28460;DHT22;32528;45.712;9.192;2022-10-31T07:18:33;14.40;99.90
28460;DHT22;32528;45.712;9.192;2022-10-31T07:20:34;14.60;99.90
28460;DHT22;32528;45.712;9.192;2022-10-31T07:22:36;14.80;99.90
28460;DHT22;32528;45.712;9.192;2022-10-31T07:24:39;14.90;99.90
28460;DHT22;32528;45.712;9.192;2022-10-31T07:27:03;15.00;99.90
28460;DHT22;32528;45.712;9.192;2022-10-31T07:29:04;15.20;99.90
28460;DHT22;32528;45.712;9.192;2022-10-31T07:31:04;15.30;99.90
28460;DHT22;32528;45.712;9.192;2022-10-31T07:33:06;15.40;99.90
28460;DHT22;32528;45.712;9.192;2022-10-31T07:35:27;15.60;99.90
28460;DHT22;32528;45.712;9.192;2022-10-31T07:37:32;15.70;99.90
28460;DHT22;32528;45.712;9.192;2022-10-31T07:39:33;15.80;99.90
28460;DHT22;32528;45.712;9.192;2022-10-31T07:41:34;15.90;99.90
28460;DHT22;32528;45.712;9.192;2022-10-31T07:43:35;15.90;99.90
28460;DHT22;32528;45.712;9.192;2022-10-31T07:46:01;16.00;99.90
28460;DHT22;32528;45.712;9.192;2022-10-31T07:48:20;16.20;99.90
28460;DHT22;32528;45.712;9.192;2022-10-31T07:50:59;16.20;99.90
28460;DHT22;32528;45.712;9.192;2022-10-31T07:53:18;16.30;99.90
28460;DHT22;32528;45.712;9.192;2022-10-31T07:55:34;16.40;99.90
28460;DHT22;32528;45.712;9.192;2022-10-31T07:57:36;16.50;99.90
28460;DHT22;32528;45.712;9.192;2022-10-31T07:59:40;16.60;99.90
28460;DHT22;32528;45.712;9.192;2022-10-31T08:01:42;16.70;99.90
28460;DHT22;32528;45.712;9.192;2022-10-31T08:04:00;16.80;99.90
28460;DHT22;32528;45.712;9.192;2022-10-31T08:06:19;16.90;99.90
28460;DHT22;32528;45.712;9.192;2022-10-31T08:08:41;17.00;99.90
28460;DHT22;32528;45.712;9.192;2022-10-31T08:10:43;17.10;99.90
28460;DHT22;32528;45.712;9.192;2022-10-31T08:12:44;17.20;99.90
28460;DHT22;32528;45.712;9.192;2022-10-31T08:14:46;17.20;99.90
28460;DHT22;32528;45.712;9.192;2022-10-31T08:16:48;17.30;99.90
28460;DHT22;32528;45.712;9.192;2022-10-31T08:18:49;17.30;99.90
28460;DHT22;32528;45.712;9.192;2022-10-31T08:20:50;17.40;99.90
28460;DHT22;32528;45.712;9.192;2022-10-31T08:23:01;17.50;99.90
28460;DHT22;32528;45.712;9.192;2022-10-31T08:25:02;17.50;99.90
28460;DHT22;32528;45.712;9.192;2022-10-31T08:27:03;17.60;99.90
28460;DHT22;32528;45.712;9.192;2022-10-31T08:29:04;17.60;99.90
28460;DHT22;32528;45.712;9.192;2022-10-31T08:31:07;17.70;99.90
28460;DHT22;32528;45.712;9.192;2022-10-31T08:33:15;17.70;99.90
28460;DHT22;32528;45.712;9.192;2022-10-31T08:35:51;17.80;99.90
28460;DHT22;32528;45.712;9.192;2022-10-31T08:38:12;17.80;99.90
28460;DHT22;32528;45.712;9.192;2022-10-31T08:40:14;17.90;99.90
28460;DHT22;32528;45.712;9.192;2022-10-31T08:42:14;18.00;99.90
28460;DHT22;32528;45.712;9.192;2022-10-31T08:44:15;18.00;99.90
28460;DHT22;32528;45.712;9.192;2022-10-31T08:46:17;18.00;99.90
28460;DHT22;32528;45.712;9.192;2022-10-31T08:48:18;18.10;99.90
28460;DHT22;32528;45.712;9.192;2022-10-31T08:50:19;18.10;99.90
28460;DHT22;32528;45.712;9.192;2022-10-31T08:52:24;18.10;99.90
28460;DHT22;32528;45.712;9.192;2022-10-31T08:54:27;18.20;99.90
28460;DHT22;32528;45.712;9.192;2022-10-31T08:56:30;18.30;99.60
28460;DHT22;32528;45.712;9.192;2022-10-31T08:58:31;18.30;98.80
28460;DHT22;32528;45.712;9.192;2022-10-31T09:00:35;18.40;98.90
28460;DHT22;32528;45.712;9.192;2022-10-31T09:03:04;18.50;99.10
28460;DHT22;32528;45.712;9.192;2022-10-31T09:05:06;18.60;99.00
28460;DHT22;32528;45.712;9.192;2022-10-31T09:07:08;18.70;98.00
28460;DHT22;32528;45.712;9.192;2022-10-31T09:09:09;18.90;98.30
28460;DHT22;32528;45.712;9.192;2022-10-31T09:11:11;19.00;97.90
28460;DHT22;32528;45.712;9.192;2022-10-31T09:13:34;19.10;97.80
28460;DHT22;32528;45.712;9.192;2022-10-31T09:15:53;19.20;97.30
28460;DHT22;32528;45.712;9.192;2022-10-31T09:17:58;19.30;97.60
28460;DHT22;32528;45.712;9.192;2022-10-31T09:20:11;19.40;96.90
28460;DHT22;32528;45.712;9.192;2022-10-31T09:22:12;19.50;96.60
28460;DHT22;32528;45.712;9.192;2022-10-31T09:24:14;19.60;96.60
28460;DHT22;32528;45.712;9.192;2022-10-31T09:26:16;19.70;96.80
28460;DHT22;32528;45.712;9.192;2022-10-31T09:28:30;19.70;96.60
28460;DHT22;32528;45.712;9.192;2022-10-31T09:30:36;19.70;95.90
28460;DHT22;32528;45.712;9.192;2022-10-31T09:32:36;19.80;96.10
28460;DHT22;32528;45.712;9.192;2022-10-31T09:34:39;19.80;95.20
28460;DHT22;32528;45.712;9.192;2022-10-31T09:36:43;19.80;95.00
28460;DHT22;32528;45.712;9.192;2022-10-31T09:38:52;19.80;94.80
28460;DHT22;32528;45.712;9.192;2022-10-31T09:52:19;20.30;94.70
28460;DHT22;32528;45.712;9.192;2022-10-31T09:54:25;20.40;93.50
28460;DHT22;32528;45.712;9.192;2022-10-31T09:56:27;20.50;92.90
28460;DHT22;32528;45.712;9.192;2022-10-31T09:58:31;20.50;93.00
28460;DHT22;32528;45.712;9.192;2022-10-31T10:00:34;20.60;92.90
28460;DHT22;32528;45.712;9.192;2022-10-31T10:02:39;20.60;93.20
28460;DHT22;32528;45.712;9.192;2022-10-31T10:04:44;20.70;92.30
28460;DHT22;32528;45.712;9.192;2022-10-31T10:06:57;20.80;91.30
28460;DHT22;32528;45.712;9.192;2022-10-31T10:09:16;20.90;91.20
28460;DHT22;32528;45.712;9.192;2022-10-31T10:22:54;21.00;90.80
28460;DHT22;32528;45.712;9.192;2022-10-31T10:25:16;21.00;90.20
28460;DHT22;32528;45.712;9.192;2022-10-31T10:31:39;21.20;90.20
28460;DHT22;32528;45.712;9.192;2022-10-31T10:34:02;21.20;90.50
28460;DHT22;32528;45.712;9.192;2022-10-31T10:36:06;21.20;90.00
28460;DHT22;32528;45.712;9.192;2022-10-31T10:38:13;21.30;89.00
28460;DHT22;32528;45.712;9.192;2022-10-31T10:40:23;21.40;89.30
28460;DHT22;32528;45.712;9.192;2022-10-31T10:42:24;21.40;90.10
28460;DHT22;32528;45.712;9.192;2022-10-31T10:44:48;21.40;90.20
28460;DHT22;32528;45.712;9.192;2022-10-31T10:47:09;21.40;90.00
28460;DHT22;32528;45.712;9.192;2022-10-31T10:53:53;21.40;90.50
28460;DHT22;32528;45.712;9.192;2022-10-31T10:56:24;21.50;90.00
28460;DHT22;32528;45.712;9.192;2022-10-31T10:58:21;21.50;88.30
28460;DHT22;32528;45.712;9.192;2022-10-31T11:00:23;21.60;87.80
28460;DHT22;32528;45.712;9.192;2022-10-31T11:02:25;21.60;88.20
28460;DHT22;32528;45.712;9.192;2022-10-31T11:06:26;21.80;87.50
28460;DHT22;32528;45.712;9.192;2022-10-31T11:08:28;21.90;88.20
28460;DHT22;32528;45.712;9.192;2022-10-31T11:10:29;22.00;87.90
28460;DHT22;32528;45.712;9.192;2022-10-31T11:12:31;22.10;87.90
28460;DHT22;32528;45.712;9.192;2022-10-31T11:14:34;22.10;87.40
28460;DHT22;32528;45.712;9.192;2022-10-31T11:16:37;22.20;87.70
28460;DHT22;32528;45.712;9.192;2022-10-31T11:18:39;22.30;85.70
28460;DHT22;32528;45.712;9.192;2022-10-31T11:20:41;22.40;86.30
28460;DHT22;32528;45.712;9.192;2022-10-31T11:22:59;22.50;85.60
28460;DHT22;32528;45.712;9.192;2022-10-31T11:25:00;22.70;83.80
28460;DHT22;32528;45.712;9.192;2022-10-31T11:29:30;22.80;82.80
28460;DHT22;32528;45.712;9.192;2022-10-31T11:31:32;22.90;82.00
28460;DHT22;32528;45.712;9.192;2022-10-31T11:35:33;22.80;81.30
28460;DHT22;32528;45.712;9.192;2022-10-31T11:37:42;22.80;81.80
28460;DHT22;32528;45.712;9.192;2022-10-31T11:39:44;22.70;82.70
28460;DHT22;32528;45.712;9.192;2022-10-31T11:41:45;22.70;83.20
28460;DHT22;32528;45.712;9.192;2022-10-31T11:43:51;22.70;83.50
28460;DHT22;32528;45.712;9.192;2022-10-31T11:45:52;22.60;83.60
28460;DHT22;32528;45.712;9.192;2022-10-31T11:47:53;22.60;82.70
28460;DHT22;32528;45.712;9.192;2022-10-31T11:49:55;22.70;84.50
28460;DHT22;32528;45.712;9.192;2022-10-31T11:51:58;22.60;85.40
28460;DHT22;32528;45.712;9.192;2022-10-31T11:54:00;22.60;84.80
28460;DHT22;32528;45.712;9.192;2022-10-31T11:56:04;22.80;84.10
28460;DHT22;32528;45.712;9.192;2022-10-31T11:58:19;22.70;84.00
28460;DHT22;32528;45.712;9.192;2022-10-31T12:02:20;22.70;84.50
28460;DHT22;32528;45.712;9.192;2022-10-31T12:04:29;22.60;85.10
28460;DHT22;32528;45.712;9.192;2022-10-31T12:06:33;22.50;84.10
28460;DHT22;32528;45.712;9.192;2022-10-31T12:08:34;22.50;85.00
28460;DHT22;32528;45.712;9.192;2022-10-31T12:10:49;22.50;85.00
28460;DHT22;32528;45.712;9.192;2022-10-31T12:19:30;22.50;84.70
28460;DHT22;32528;45.712;9.192;2022-10-31T12:21:34;22.50;85.40
28460;DHT22;32528;45.712;9.192;2022-10-31T12:31:01;22.40;85.70
28460;DHT22;32528;45.712;9.192;2022-10-31T12:38:57;22.30;85.60
28460;DHT22;32528;45.712;9.192;2022-10-31T12:41:04;22.30;86.00
28460;DHT22;32528;45.712;9.192;2022-10-31T12:43:23;22.30;82.80
28460;DHT22;32528;45.712;9.192;2022-10-31T12:47:55;22.20;82.40
28460;DHT22;32528;45.712;9.192;2022-10-31T12:56:49;22.00;84.30
28460;DHT22;32528;45.712;9.192;2022-10-31T12:59:00;21.80;84.40
28460;DHT22;32528;45.712;9.192;2022-10-31T13:07:21;21.90;84.10
28460;DHT22;32528;45.712;9.192;2022-10-31T13:09:26;22.00;83.10
28460;DHT22;32528;45.712;9.192;2022-10-31T13:11:34;22.00;82.40
28460;DHT22;32528;45.712;9.192;2022-10-31T13:15:52;22.10;84.20
28460;DHT22;32528;45.712;9.192;2022-10-31T13:17:56;22.10;84.30
28460;DHT22;32528;45.712;9.192;2022-10-31T13:20:11;22.10;85.10
28460;DHT22;32528;45.712;9.192;2022-10-31T13:22:13;22.10;82.70
28460;DHT22;32528;45.712;9.192;2022-10-31T13:24:18;22.00;85.20
28460;DHT22;32528;45.712;9.192;2022-10-31T13:28:59;22.10;86.70
28460;DHT22;32528;45.712;9.192;2022-10-31T13:31:01;22.10;83.10
28460;DHT22;32528;45.712;9.192;2022-10-31T13:33:15;22.20;84.40
28460;DHT22;32528;45.712;9.192;2022-10-31T13:35:26;22.20;84.20
28460;DHT22;32528;45.712;9.192;2022-10-31T13:37:32;22.30;83.60
28460;DHT22;32528;45.712;9.192;2022-10-31T13:39:55;22.30;83.20
28460;DHT22;32528;45.712;9.192;2022-10-31T13:42:08;22.30;84.10
28460;DHT22;32528;45.712;9.192;2022-10-31T13:44:24;22.20;82.50
28460;DHT22;32528;45.712;9.192;2022-10-31T13:46:35;22.30;82.40
28460;DHT22;32528;45.712;9.192;2022-10-31T13:48:37;22.30;81.70
28460;DHT22;32528;45.712;9.192;2022-10-31T13:50:39;22.40;81.50
28460;DHT22;32528;45.712;9.192;2022-10-31T13:52:40;22.30;82.00
28460;DHT22;32528;45.712;9.192;2022-10-31T13:54:42;22.30;82.20
28460;DHT22;32528;45.712;9.192;2022-10-31T13:56:49;22.30;83.00
28460;DHT22;32528;45.712;9.192;2022-10-31T14:01:03;22.30;81.90
28460;DHT22;32528;45.712;9.192;2022-10-31T14:03:05;22.30;81.80
28460;DHT22;32528;45.712;9.192;2022-10-31T14:05:06;22.30;82.20
28460;DHT22;32528;45.712;9.192;2022-10-31T14:07:20;22.30;83.60
28460;DHT22;32528;45.712;9.192;2022-10-31T14:09:23;22.30;83.60
28460;DHT22;32528;45.712;9.192;2022-10-31T14:11:26;22.30;82.80
28460;DHT22;32528;45.712;9.192;2022-10-31T14:13:30;22.30;82.80
28460;DHT22;32528;45.712;9.192;2022-10-31T14:15:31;22.40;81.40
28460;DHT22;32528;45.712;9.192;2022-10-31T14:17:50;22.30;81.60
28460;DHT22;32528;45.712;9.192;2022-10-31T14:19:59;22.40;81.20
28460;DHT22;32528;45.712;9.192;2022-10-31T14:22:00;22.40;80.70
28460;DHT22;32528;45.712;9.192;2022-10-31T14:24:00;22.30;80.50
28460;DHT22;32528;45.712;9.192;2022-10-31T14:26:17;22.40;82.20
28460;DHT22;32528;45.712;9.192;2022-10-31T14:28:20;22.30;82.20
28460;DHT22;32528;45.712;9.192;2022-10-31T14:30:22;22.40;82.40
28460;DHT22;32528;45.712;9.192;2022-10-31T14:32:23;22.40;82.30
28460;DHT22;32528;45.712;9.192;2022-10-31T14:34:28;22.30;81.80
28460;DHT22;32528;45.712;9.192;2022-10-31T14:36:42;22.30;81.20
28460;DHT22;32528;45.712;9.192;2022-10-31T14:40:59;22.20;81.20
28460;DHT22;32528;45.712;9.192;2022-10-31T14:43:39;22.20;80.90
28460;DHT22;32528;45.712;9.192;2022-10-31T14:48:03;22.10;81.50
28460;DHT22;32528;45.712;9.192;2022-10-31T14:50:24;22.10;82.10
28460;DHT22;32528;45.712;9.192;2022-10-31T14:52:30;22.10;82.00
28460;DHT22;32528;45.712;9.192;2022-10-31T14:54:33;22.10;85.00
28460;DHT22;32528;45.712;9.192;2022-10-31T14:56:34;22.20;86.20
28460;DHT22;32528;45.712;9.192;2022-10-31T14:58:45;22.20;87.70
28460;DHT22;32528;45.712;9.192;2022-10-31T15:00:46;22.20;87.20
28460;DHT22;32528;45.712;9.192;2022-10-31T15:03:03;22.20;87.70
28460;DHT22;32528;45.712;9.192;2022-10-31T15:05:08;22.20;88.60
28460;DHT22;32528;45.712;9.192;2022-10-31T15:07:11;22.20;89.00
28460;DHT22;32528;45.712;9.192;2022-10-31T15:09:20;22.20;89.50
28460;DHT22;32528;45.712;9.192;2022-10-31T15:11:22;22.20;90.30
28460;DHT22;32528;45.712;9.192;2022-10-31T15:13:23;22.20;90.50